Time;durP1;ratioP1;P1;durP2;ratioP2;P2;SDS_P1;SDS_P2;PMS_P1;PMS_P2;Temp;Humidity;BMP_temperature;BMP_pressure;BME280_temperature;BME280_humidity;BME280_pressure;Samples;Min_cycle;Max_cycle;Signal;HPM_P1;HPM_P2
2021/05/08 00:00:09;;;;;;;17.58;2.30;;;36.80;16.80;;;;;;5112924;28;20191;-53
2021/05/08 00:02:35;;;;;;;17.35;3.03;;;36.80;17.10;;;;;;5113098;28;20081;-51
2021/05/08 00:05:03;;;;;;;15.02;2.97;;;36.90;17.60;;;;;;5113361;28;20080;-53
2021/05/08 00:10:51;;;;;;;14.63;2.95;;;37.00;17.20;;;;;;5113375;28;20445;-51
2021/05/08 00:13:17;;;;;;;15.68;2.85;;;37.00;17.10;;;;;;5113786;28;20080;-54
2021/05/08 00:15:44;;;;;;;18.13;2.95;;;37.00;17.30;;;;;;5113698;28;20072;-57
2021/05/08 00:18:10;;;;;;;9.50;2.30;;;36.90;17.50;;;;;;5113291;28;20129;-52
2021/05/08 00:23:59;;;;;;;23.20;2.85;;;36.70;17.20;;;;;;5113416;28;20161;-51
2021/05/08 00:26:26;;;;;;;20.10;3.15;;;36.70;17.40;;;;;;5113171;28;20072;-52
2021/05/08 00:28:52;;;;;;;15.50;2.53;;;36.60;17.10;;;;;;5095324;28;20087;-51
2021/05/08 00:31:19;;;;;;;13.93;3.25;;;36.60;17.00;;;;;;5113501;28;20084;-55
2021/05/08 00:33:46;;;;;;;14.77;3.35;;;36.50;18.10;;;;;;5113112;28;20069;-51
2021/05/08 00:36:12;;;;;;;20.95;2.83;;;36.50;18.40;;;;;;5113144;28;20192;-52
2021/05/08 00:38:39;;;;;;;15.88;3.30;;;36.40;17.40;;;;;;5113344;28;20079;-51
2021/05/08 00:41:05;;;;;;;20.35;3.60;;;36.30;17.90;;;;;;5113042;28;20096;-53
2021/05/08 00:43:32;;;;;;;27.20;2.90;;;36.30;17.80;;;;;;5112939;28;20103;-53
2021/05/08 00:45:59;;;;;;;19.33;3.58;;;36.20;17.80;;;;;;5112988;28;20091;-51
2021/05/08 00:48:30;;;;;;;24.38;3.58;;;36.40;18.70;;;;;;5113834;28;20135;-51
2021/05/08 00:54:18;;;;;;;18.67;2.97;;;36.30;18.00;;;;;;5113179;28;20079;-51
2021/05/08 00:56:45;;;;;;;18.60;3.13;;;36.20;16.40;;;;;;5112878;28;20165;-51
2021/05/08 00:59:12;;;;;;;13.93;3.00;;;36.10;16.40;;;;;;5112702;28;20553;-55
2021/05/08 01:01:40;;;;;;;15.85;3.30;;;36.10;15.20;;;;;;5114391;28;20101;-51
2021/05/08 01:04:07;;;;;;;11.82;2.90;;;36.20;14.30;;;;;;5116799;28;20072;-51
2021/05/08 01:06:34;;;;;;;14.05;3.03;;;36.10;14.10;;;;;;5116645;28;20076;-55
2021/05/08 01:09:02;;;;;;;7.18;2.55;;;36.10;14.70;;;;;;5116159;28;20079;-53
2021/05/08 01:11:28;;;;;;;11.38;2.85;;;36.10;13.90;;;;;;5116430;28;20129;-55
2021/05/08 01:13:55;;;;;;;13.18;2.42;;;36.00;14.20;;;;;;5116353;28;20155;-52
2021/05/08 01:16:22;;;;;;;12.13;2.33;;;35.90;14.20;;;;;;5116784;28;20068;-54
2021/05/08 01:18:51;;;;;;;10.43;2.60;;;35.90;14.30;;;;;;5116458;28;20076;-50
2021/05/08 01:21:21;;;;;;;10.40;2.33;;;35.70;14.10;;;;;;5116403;28;20583;-55
2021/05/08 01:23:49;;;;;;;14.88;3.03;;;35.60;14.40;;;;;;5116669;28;20072;-55
2021/05/08 01:26:16;;;;;;;11.30;3.30;;;35.50;14.40;;;;;;5116488;28;20120;-52
2021/05/08 01:28:43;;;;;;;15.15;2.70;;;35.40;14.50;;;;;;5116327;28;20080;-54
2021/05/08 01:31:11;;;;;;;22.52;3.22;;;35.40;14.70;;;;;;5116358;28;20071;-54
2021/05/08 01:33:37;;;;;;;22.08;2.90;;;35.20;14.50;;;;;;5115986;28;20514;-54
2021/05/08 01:36:04;;;;;;;23.58;3.45;;;35.10;14.60;;;;;;5098384;28;20068;-51
2021/05/08 01:38:32;;;;;;;13.10;2.28;;;35.20;14.40;;;;;;5115710;28;20533;-52
2021/05/08 01:44:20;;;;;;;21.83;3.25;;;35.00;14.10;;;;;;5116101;28;20098;-50
2021/05/08 01:46:46;;;;;;;27.48;5.10;;;34.70;14.20;;;;;;5116232;28;20140;-49
2021/05/08 01:49:13;;;;;;;12.60;3.63;;;34.50;14.20;;;;;;5115806;28;20124;-51
2021/05/08 01:51:39;;;;;;;17.50;3.35;;;34.40;14.30;;;;;;5115824;28;20071;-53
2021/05/08 01:57:27;;;;;;;24.58;7.60;;;34.20;14.20;;;;;;5114716;28;20544;-49
2021/05/08 01:59:54;;;;;;;19.65;4.88;;;34.00;14.20;;;;;;5115731;28;20187;-52
2021/05/08 02:02:20;;;;;;;18.67;4.13;;;33.80;14.40;;;;;;5115490;28;20118;-53
2021/05/08 02:04:48;;;;;;;17.02;3.63;;;33.60;13.90;;;;;;5115411;28;20076;-50
2021/05/08 02:07:14;;;;;;;25.08;4.40;;;33.40;14.10;;;;;;5115560;28;20571;-49
2021/05/08 02:09:41;;;;;;;25.90;4.95;;;33.20;14.10;;;;;;5115325;28;20585;-49
2021/05/08 02:12:07;;;;;;;15.40;3.70;;;33.10;14.20;;;;;;5115171;28;20536;-50
2021/05/08 02:14:36;;;;;;;13.27;3.33;;;33.00;14.30;;;;;;5114584;28;20087;-52
2021/05/08 02:17:04;;;;;;;16.55;3.20;;;32.90;14.30;;;;;;5115103;28;20095;-53
2021/05/08 02:19:32;;;;;;;9.57;3.67;;;32.70;13.80;;;;;;5115075;28;20456;-51
2021/05/08 02:22:00;;;;;;;16.02;3.00;;;32.60;14.10;;;;;;5115371;28;20076;-54
2021/05/08 02:24:27;;;;;;;14.10;3.75;;;32.50;14.30;;;;;;5115284;28;20080;-53
2021/05/08 02:30:19;;;;;;;15.52;3.63;;;32.30;14.30;;;;;;5115445;28;20078;-54
2021/05/08 02:36:07;;;;;;;16.80;3.45;;;32.10;14.90;;;;;;5115348;28;20079;-51
2021/05/08 02:38:33;;;;;;;14.65;3.28;;;32.00;14.90;;;;;;5114951;28;20448;-50
2021/05/08 02:41:00;;;;;;;12.23;2.85;;;32.00;15.20;;;;;;5114715;28;20438;-51
2021/05/08 02:43:26;;;;;;;12.43;2.53;;;31.90;14.90;;;;;;5114755;28;20073;-51
2021/05/08 02:45:53;;;;;;;19.05;3.17;;;31.90;15.10;;;;;;5114723;28;20071;-53
2021/05/08 02:48:19;;;;;;;14.23;3.40;;;31.70;15.30;;;;;;5114462;28;20116;-50
2021/05/08 02:50:45;;;;;;;10.68;2.75;;;31.70;16.10;;;;;;5114794;28;20087;-51
2021/05/08 02:53:12;;;;;;;10.20;2.80;;;31.70;16.10;;;;;;5114842;28;20100;-49
2021/05/08 02:55:39;;;;;;;13.70;2.50;;;31.50;16.10;;;;;;5114741;28;20072;-51
2021/05/08 02:58:05;;;;;;;15.25;2.97;;;31.30;15.90;;;;;;5114578;28;20151;-53
2021/05/08 03:00:32;;;;;;;24.40;3.40;;;31.30;16.00;;;;;;5114447;28;20099;-49
2021/05/08 03:02:58;;;;;;;15.93;2.58;;;31.20;15.80;;;;;;5114386;28;20076;-52
2021/05/08 03:05:25;;;;;;;13.13;2.90;;;31.20;15.90;;;;;;5114491;28;20106;-51
2021/05/08 03:07:52;;;;;;;14.13;2.30;;;31.10;16.40;;;;;;5114274;28;20437;-52
2021/05/08 03:10:19;;;;;;;14.90;2.95;;;31.00;15.90;;;;;;5096013;28;20072;-51
2021/05/08 03:16:07;;;;;;;16.85;3.42;;;30.90;15.90;;;;;;5114726;28;20539;-52
2021/05/08 03:18:33;;;;;;;15.30;2.97;;;30.80;15.90;;;;;;5114244;28;20514;-52
2021/05/08 03:21:00;;;;;;;10.13;2.90;;;30.80;15.70;;;;;;5114156;28;20196;-50
2021/05/08 03:23:26;;;;;;;14.25;3.63;;;30.70;15.90;;;;;;5114243;28;20096;-49
2021/05/08 03:25:53;;;;;;;18.98;3.55;;;30.70;16.20;;;;;;5114009;28;20068;-49
2021/05/08 03:28:19;;;;;;;12.45;3.30;;;30.60;16.50;;;;;;5114123;28;20514;-51
2021/05/08 03:30:46;;;;;;;19.02;3.72;;;30.60;16.40;;;;;;5114149;28;20065;-53
2021/05/08 03:33:12;;;;;;;18.90;3.38;;;30.50;16.60;;;;;;5114017;28;20103;-52
2021/05/08 03:35:39;;;;;;;9.57;3.40;;;30.40;16.90;;;;;;5113921;28;20514;-52
2021/05/08 03:38:05;;;;;;;10.30;2.72;;;30.40;17.60;;;;;;5113887;28;20102;-52
2021/05/08 03:40:32;;;;;;;17.83;2.88;;;30.30;17.10;;;;;;5113766;28;20100;-56
2021/05/08 03:42:59;;;;;;;16.13;3.47;;;30.20;16.80;;;;;;5095784;28;20521;-56
2021/05/08 03:45:25;;;;;;;11.68;3.67;;;30.10;17.00;;;;;;5113773;28;20113;-54
2021/05/08 03:48:06;;;;;;;17.85;3.70;;;30.10;17.30;;;;;;5113627;28;20139;-54
2021/05/08 03:50:33;;;;;;;18.23;3.35;;;30.00;17.40;;;;;;5109365;28;20084;-60
2021/05/08 03:52:59;;;;;;;15.93;3.35;;;29.90;17.50;;;;;;5113965;28;20108;-54
2021/05/08 03:55:26;;;;;;;19.35;3.88;;;29.90;17.70;;;;;;5113783;28;20111;-55
2021/05/08 03:57:52;;;;;;;17.27;3.20;;;29.80;17.80;;;;;;5113784;28;20075;-55
2021/05/08 04:00:19;;;;;;;21.83;3.15;;;29.70;17.90;;;;;;5113433;28;20119;-54
2021/05/08 04:02:45;;;;;;;20.63;3.53;;;29.60;18.00;;;;;;5113555;28;20100;-54
2021/05/08 04:05:12;;;;;;;21.80;2.97;;;29.60;18.00;;;;;;5113970;28;20583;-53
2021/05/08 04:07:39;;;;;;;20.85;3.30;;;29.50;18.10;;;;;;5113507;28;20068;-57
2021/05/08 04:10:06;;;;;;;18.65;3.50;;;29.40;17.80;;;;;;5113811;28;20080;-53
2021/05/08 04:12:32;;;;;;;24.45;4.18;;;29.30;18.10;;;;;;5113677;28;20552;-56
2021/05/08 04:14:59;;;;;;;20.55;4.72;;;29.20;17.90;;;;;;5113773;28;20060;-52
2021/05/08 04:17:25;;;;;;;22.17;3.63;;;29.10;17.80;;;;;;5113841;28;20438;-53
2021/05/08 04:19:52;;;;;;;22.23;3.67;;;29.10;17.70;;;;;;5113455;28;20104;-56
2021/05/08 04:22:18;;;;;;;18.00;3.85;;;29.10;17.90;;;;;;5113449;28;20072;-56
2021/05/08 04:24:45;;;;;;;27.58;3.00;;;29.10;18.50;;;;;;5113466;28;20251;-54
2021/05/08 04:27:11;;;;;;;24.63;2.60;;;29.00;17.50;;;;;;5113171;28;20087;-51
2021/05/08 04:33:00;;;;;;;12.73;2.55;;;28.90;17.50;;;;;;5113410;28;20490;-54
2021/05/08 04:35:26;;;;;;;17.02;2.75;;;28.80;17.80;;;;;;5113386;28;20410;-53
2021/05/08 04:37:52;;;;;;;10.80;2.83;;;28.80;17.40;;;;;;5116744;28;20161;-54
2021/05/08 04:40:19;;;;;;;16.45;2.65;;;28.70;17.20;;;;;;5117454;28;20152;-55
2021/05/08 04:42:45;;;;;;;14.75;3.08;;;28.60;16.60;;;;;;5117254;28;20083;-54
2021/05/08 04:45:12;;;;;;;8.25;2.70;;;28.60;16.30;;;;;;5117282;28;20446;-56
2021/05/08 04:47:38;;;;;;;18.15;2.53;;;28.60;16.30;;;;;;5117135;28;20120;-52
2021/05/08 04:50:05;;;;;;;9.90;3.08;;;28.60;16.40;;;;;;5117074;28;20076;-53
2021/05/08 04:55:54;;;;;;;10.02;2.75;;;28.50;16.20;;;;;;5117711;28;20079;-53
2021/05/08 04:58:20;;;;;;;10.07;2.00;;;28.40;16.10;;;;;;5117300;28;20072;-55
2021/05/08 05:00:48;;;;;;;11.18;2.53;;;28.40;16.20;;;;;;5117011;28;20123;-56
2021/05/08 05:03:14;;;;;;;9.32;2.80;;;28.40;16.90;;;;;;5117181;28;20471;-52
2021/05/08 05:05:40;;;;;;;11.98;3.03;;;28.30;17.00;;;;;;5117237;28;20091;-53
2021/05/08 05:08:07;;;;;;;13.15;3.53;;;28.30;16.90;;;;;;5116992;28;20068;-56
2021/05/08 05:10:34;;;;;;;14.27;2.83;;;28.20;17.30;;;;;;5116895;28;20087;-54
2021/05/08 05:13:00;;;;;;;15.13;3.15;;;28.10;17.30;;;;;;5117088;28;20158;-52
2021/05/08 05:15:27;;;;;;;13.57;3.35;;;28.00;16.60;;;;;;5116863;28;20444;-52
2021/05/08 05:17:55;;;;;;;21.85;4.13;;;28.00;17.20;;;;;;5116552;28;20162;-53
2021/05/08 05:20:21;;;;;;;12.50;3.38;;;27.90;16.70;;;;;;5116579;28;20099;-52
2021/05/08 05:22:48;;;;;;;9.55;2.30;;;27.90;16.90;;;;;;5116672;28;20140;-55
2021/05/08 05:25:15;;;;;;;9.45;3.03;;;27.80;17.00;;;;;;5116703;28;20076;-53
2021/05/08 05:27:41;;;;;;;13.18;2.42;;;27.80;17.80;;;;;;5116532;28;20076;-54
2021/05/08 05:30:08;;;;;;;9.40;2.45;;;27.70;16.90;;;;;;5116600;28;20064;-57
2021/05/08 05:32:35;;;;;;;13.98;2.20;;;27.70;16.80;;;;;;5116348;28;20080;-57
2021/05/08 05:35:01;;;;;;;15.73;2.47;;;27.60;17.60;;;;;;5116499;28;20114;-57
2021/05/08 05:37:28;;;;;;;10.10;2.20;;;27.60;17.20;;;;;;5116485;28;20117;-53
2021/05/08 05:39:54;;;;;;;13.15;2.70;;;27.50;17.20;;;;;;5116148;28;20096;-53
2021/05/08 05:45:43;;;;;;;10.80;3.90;;;27.50;17.30;;;;;;5116575;28;20613;-53
2021/05/08 05:48:09;;;;;;;23.55;5.63;;;27.40;17.50;;;;;;5114558;28;20612;-52
2021/05/08 05:50:43;;;;;;;25.60;5.47;;;27.40;22.50;;;;;;5097702;28;20076;-52
2021/05/08 05:53:13;;;;;;;35.97;7.25;;;27.30;27.00;;;;;;5116121;28;20080;-52
2021/05/08 05:55:39;;;;;;;32.35;6.68;;;27.30;32.40;;;;;;5116165;28;20072;-53
2021/05/08 05:58:06;;;;;;;30.77;5.90;;;27.20;35.60;;;;;;5116005;28;20072;-52
2021/05/08 06:00:32;;;;;;;37.75;6.80;;;27.00;37.80;;;;;;5116339;28;20088;-51
2021/05/08 06:02:59;;;;;;;30.05;5.93;;;26.90;38.50;;;;;;5115763;28;20581;-53
2021/05/08 06:05:25;;;;;;;43.28;5.93;;;26.80;39.00;;;;;;5115748;28;20111;-53
2021/05/08 06:07:52;;;;;;;42.50;5.15;;;26.70;39.30;;;;;;5115724;28;20552;-51
2021/05/08 06:10:18;;;;;;;33.15;6.03;;;26.60;40.70;;;;;;5115596;28;20167;-52
2021/05/08 06:12:45;;;;;;;27.08;5.55;;;26.60;42.20;;;;;;5115806;28;20064;-53
2021/05/08 06:15:13;;;;;;;30.25;6.03;;;26.50;43.10;;;;;;5115696;28;20110;-52
2021/05/08 06:17:40;;;;;;;38.25;6.53;;;26.40;44.10;;;;;;5115528;28;20075;-49
2021/05/08 06:20:07;;;;;;;32.97;6.28;;;26.20;45.10;;;;;;5115396;28;20557;-53
2021/05/08 06:22:34;;;;;;;31.63;7.45;;;26.20;46.00;;;;;;5115458;28;20092;-53
2021/05/08 06:25:00;;;;;;;35.63;6.45;;;26.10;46.70;;;;;;5115611;28;20072;-51
2021/05/08 06:30:49;;;;;;;32.75;6.28;;;25.90;48.80;;;;;;5115578;28;20484;-50
2021/05/08 06:36:37;;;;;;;27.88;5.60;;;25.60;50.00;;;;;;5115508;28;20125;-52
2021/05/08 06:39:04;;;;;;;30.25;5.47;;;25.60;51.60;;;;;;5115054;28;20068;-49
2021/05/08 06:41:30;;;;;;;25.13;5.03;;;25.50;52.20;;;;;;5115014;28;20568;-50
2021/05/08 06:43:57;;;;;;;29.10;6.25;;;25.60;52.80;;;;;;5114873;28;20414;-51
2021/05/08 06:46:23;;;;;;;27.13;5.40;;;25.50;53.20;;;;;;5114743;28;20631;-49
2021/05/08 06:48:51;;;;;;;29.98;5.55;;;25.50;53.30;;;;;;5114590;28;20151;-52
2021/05/08 06:51:17;;;;;;;27.65;5.07;;;25.50;53.30;;;;;;5114702;28;20091;-50
2021/05/08 06:53:44;;;;;;;23.05;5.82;;;25.50;53.30;;;;;;5114765;28;20079;-48
2021/05/08 06:56:10;;;;;;;28.50;5.35;;;25.30;53.70;;;;;;5114941;28;20437;-49
2021/05/08 06:58:39;;;;;;;26.20;5.72;;;25.20;54.70;;;;;;5096170;28;20068;-49
2021/05/08 07:01:06;;;;;;;26.88;5.65;;;25.10;55.60;;;;;;5114483;28;20517;-50
2021/05/08 07:03:32;;;;;;;28.23;5.28;;;25.10;56.30;;;;;;5114425;28;20064;-50
2021/05/08 07:05:59;;;;;;;22.35;5.18;;;25.00;57.00;;;;;;5114620;28;20521;-49
2021/05/08 07:08:26;;;;;;;24.98;5.07;;;24.90;57.60;;;;;;5113612;28;20084;-50
2021/05/08 07:10:53;;;;;;;28.55;5.68;;;24.90;58.00;;;;;;5114509;28;20076;-49
2021/05/08 07:13:21;;;;;;;20.85;5.60;;;24.70;58.90;;;;;;5114159;28;20072;-50
2021/05/08 07:15:48;;;;;;;40.75;5.78;;;24.60;59.30;;;;;;5114340;28;20444;-53
2021/05/08 07:18:15;;;;;;;26.92;6.07;;;24.70;59.60;;;;;;5096103;28;20459;-50
2021/05/08 07:24:06;;;;;;;26.23;6.47;;;24.50;60.40;;;;;;5114503;28;20121;-52
2021/05/08 07:26:32;;;;;;;25.20;5.93;;;24.50;61.10;;;;;;5114169;28;20103;-49
2021/05/08 07:29:00;;;;;;;26.30;7.30;;;24.50;60.90;;;;;;5114505;28;20076;-54
2021/05/08 07:31:27;;;;;;;27.50;5.93;;;24.50;61.00;;;;;;5114134;28;20133;-51
2021/05/08 07:34:06;;;;;;;28.08;6.18;;;24.50;61.40;;;;;;5095754;28;20072;-49
2021/05/08 07:36:33;;;;;;;29.13;6.63;;;24.50;61.40;;;;;;5114058;28;20087;-50
2021/05/08 07:39:00;;;;;;;25.25;8.23;;;24.40;62.50;;;;;;5113794;28;20068;-50
2021/05/08 07:41:26;;;;;;;26.88;7.70;;;24.40;61.60;;;;;;5114096;28;20096;-50
2021/05/08 07:43:53;;;;;;;30.23;7.00;;;24.40;61.80;;;;;;5114110;28;20076;-50
2021/05/08 07:46:19;;;;;;;31.08;6.32;;;24.40;62.00;;;;;;5113896;28;20147;-53
2021/05/08 07:48:46;;;;;;;27.40;6.18;;;24.40;62.00;;;;;;5113388;28;20530;-52
2021/05/08 07:51:13;;;;;;;31.08;6.03;;;24.40;61.70;;;;;;5113690;28;20191;-51
2021/05/08 07:53:39;;;;;;;25.98;5.20;;;24.40;61.70;;;;;;5113586;28;20064;-53
2021/05/08 07:56:06;;;;;;;20.65;4.93;;;24.40;61.00;;;;;;5113907;28;20169;-53
2021/05/08 07:58:32;;;;;;;24.95;5.10;;;24.30;61.10;;;;;;5114784;28;20091;-55
2021/05/08 08:00:59;;;;;;;28.77;5.30;;;24.40;60.80;;;;;;5114467;28;20182;-53
2021/05/08 08:03:25;;;;;;;24.02;4.90;;;24.40;60.70;;;;;;5113707;28;20607;-54
2021/05/08 08:05:52;;;;;;;20.77;4.55;;;24.40;60.60;;;;;;5113761;28;20076;-54
2021/05/08 08:08:18;;;;;;;19.65;4.22;;;24.40;60.00;;;;;;5113450;28;20080;-50
2021/05/08 08:10:45;;;;;;;23.50;4.30;;;24.30;59.80;;;;;;5112676;28;20071;-50
2021/05/08 08:13:11;;;;;;;22.00;4.35;;;24.30;60.20;;;;;;5113428;28;20076;-52
2021/05/08 08:15:38;;;;;;;20.75;4.57;;;24.30;60.20;;;;;;5113391;28;20128;-51
2021/05/08 08:18:09;;;;;;;18.65;4.85;;;24.30;60.00;;;;;;5113661;28;20433;-54
2021/05/08 08:20:36;;;;;;;24.48;4.82;;;24.20;60.00;;;;;;5113239;28;20108;-49
2021/05/08 08:23:02;;;;;;;24.08;4.25;;;24.20;60.30;;;;;;5113247;28;20072;-51
2021/05/08 08:25:29;;;;;;;19.48;4.03;;;24.20;60.10;;;;;;5113322;28;20071;-53
2021/05/08 08:27:55;;;;;;;22.30;5.20;;;24.20;60.10;;;;;;5113130;28;20529;-51
2021/05/08 08:30:22;;;;;;;22.10;5.85;;;24.10;60.00;;;;;;5113344;28;20068;-50
2021/05/08 08:32:49;;;;;;;24.65;5.28;;;24.10;59.40;;;;;;5113025;28;20099;-53
2021/05/08 08:35:15;;;;;;;29.77;6.20;;;24.10;59.60;;;;;;5112930;28;20087;-51
2021/05/08 08:37:42;;;;;;;29.88;5.57;;;24.00;59.60;;;;;;5113182;28;20089;-51
2021/05/08 08:40:09;;;;;;;24.92;5.30;;;24.10;59.70;;;;;;5112972;28;20092;-51
2021/05/08 08:42:37;;;;;;;20.73;5.53;;;24.10;59.70;;;;;;5113265;28;20091;-54
2021/05/08 08:45:05;;;;;;;36.83;6.00;;;24.00;59.70;;;;;;5113104;28;20080;-51
2021/05/08 08:47:32;;;;;;;26.08;6.75;;;23.90;60.00;;;;;;5112844;28;20072;-53
2021/05/08 08:53:20;;;;;;;31.40;7.45;;;23.90;60.80;;;;;;5113214;28;20115;-53
2021/05/08 08:55:55;;;;;;;34.90;6.85;;;23.80;61.70;;;;;;5113193;28;20118;-52
2021/05/08 08:58:29;;;;;;;30.95;8.20;;;23.80;60.70;;;;;;5115062;28;20098;-52
2021/05/08 09:01:00;;;;;;;39.55;7.93;;;23.70;60.80;;;;;;5112985;28;20139;-52
2021/05/08 09:03:27;;;;;;;36.45;8.75;;;23.70;60.60;;;;;;5112809;28;20097;-48
2021/05/08 09:05:54;;;;;;;60.95;11.45;;;23.70;60.50;;;;;;5112947;28;20433;-51
2021/05/08 09:08:20;;;;;;;49.90;11.30;;;23.60;60.80;;;;;;5112932;28;20061;-52
2021/05/08 09:14:26;;;;;;;57.28;15.25;;;23.50;60.90;;;;;;5113174;28;20114;-53
2021/05/08 09:17:14;;;;;;;58.42;14.70;;;23.50;61.20;;;;;;5113001;28;20096;-54
2021/05/08 09:19:42;;;;;;;62.50;16.75;;;23.40;61.30;;;;;;5112885;28;20069;-50
2021/05/08 09:22:44;;;;;;;62.47;16.17;;;23.40;61.50;;;;;;5113552;28;20068;-50
2021/05/08 09:25:15;;;;;;;58.97;16.75;;;23.30;61.90;;;;;;5033642;28;20160;-51
2021/05/08 09:27:51;;;;;;;63.97;15.65;;;23.10;62.20;;;;;;5103061;28;20080;-51
2021/05/08 09:30:22;;;;;;;58.70;15.13;;;23.10;62.70;;;;;;5116616;28;20074;-51
2021/05/08 09:32:58;;;;;;;53.40;15.35;;;23.10;62.90;;;;;;5116408;28;20068;-51
2021/05/08 09:35:34;;;;;;;63.87;13.53;;;23.10;62.50;;;;;;5098229;28;20197;-50
2021/05/08 09:38:17;;;;;;;46.03;12.18;;;23.10;62.60;;;;;;5116333;28;20159;-52
2021/05/08 09:40:52;;;;;;;58.13;12.82;;;23.10;63.40;;;;;;5116098;28;20142;-53
2021/05/08 09:43:22;;;;;;;45.58;13.35;;;23.00;63.40;;;;;;5116231;28;20154;-51
2021/05/08 09:45:53;;;;;;;58.42;16.15;;;23.00;64.30;;;;;;5116398;28;20079;-53
2021/05/08 09:48:19;;;;;;;65.97;17.17;;;22.90;65.30;;;;;;5115760;28;20155;-50
2021/05/08 09:50:46;;;;;;;63.33;17.27;;;22.90;65.80;;;;;;5115974;28;20084;-53
2021/05/08 09:53:31;;;;;;;59.05;16.10;;;22.80;66.20;;;;;;5116050;28;20087;-51
2021/05/08 09:55:58;;;;;;;54.58;16.05;;;22.70;67.00;;;;;;5115933;28;20072;-51
2021/05/08 09:58:26;;;;;;;52.60;15.60;;;22.70;68.00;;;;;;5115885;28;20083;-52
2021/05/08 10:00:54;;;;;;;51.72;14.93;;;22.70;68.50;;;;;;5115934;28;20123;-50
2021/05/08 10:03:23;;;;;;;54.97;15.80;;;22.50;69.40;;;;;;5116009;28;20631;-52
2021/05/08 10:06:09;;;;;;;65.55;16.98;;;22.50;70.10;;;;;;5115754;28;20087;-52
2021/05/08 10:08:35;;;;;;;69.63;18.73;;;22.40;70.80;;;;;;5115955;28;20083;-53
2021/05/08 10:11:03;;;;;;;58.90;15.13;;;22.50;71.60;;;;;;5115666;28;20123;-50
2021/05/08 10:13:32;;;;;;;64.97;16.30;;;22.60;71.00;;;;;;5115909;28;20072;-51
2021/05/08 10:19:20;;;;;;;65.30;17.38;;;22.50;71.20;;;;;;5115547;28;20103;-50
2021/05/08 10:21:47;;;;;;;56.63;16.17;;;22.50;70.30;;;;;;5115542;28;20096;-53
2021/05/08 10:24:15;;;;;;;52.65;15.88;;;22.50;69.40;;;;;;5115418;28;20064;-52
2021/05/08 10:26:42;;;;;;;51.13;15.45;;;22.50;70.40;;;;;;5115384;28;20068;-55
2021/05/08 10:29:10;;;;;;;51.08;14.95;;;22.40;69.90;;;;;;5115749;28;20116;-51
2021/05/08 10:31:37;;;;;;;62.47;17.55;;;22.40;69.30;;;;;;5115345;28;20072;-51
2021/05/08 10:34:04;;;;;;;65.18;18.55;;;22.30;70.00;;;;;;5114429;28;20083;-50
2021/05/08 10:36:47;;;;;;;68.55;22.58;;;22.30;69.90;;;;;;5115054;28;20076;-49
2021/05/08 10:39:14;;;;;;;56.85;18.27;;;22.30;70.00;;;;;;5115045;28;20159;-50
2021/05/08 10:41:53;;;;;;;72.00;18.48;;;22.30;69.40;;;;;;5115054;28;20177;-52
2021/05/08 10:44:47;;;;;;;66.18;16.88;;;22.30;69.90;;;;;;5115120;28;20068;-51
2021/05/08 10:47:14;;;;;;;47.15;15.93;;;22.30;70.20;;;;;;5115221;28;20183;-54
2021/05/08 10:49:43;;;;;;;53.42;17.08;;;22.30;69.80;;;;;;5114835;28;20522;-55
2021/05/08 10:52:10;;;;;;;64.60;17.70;;;22.10;69.30;;;;;;5114698;28;20084;-54
2021/05/08 10:54:40;;;;;;;71.22;18.33;;;22.10;70.00;;;;;;5114793;28;20079;-52
2021/05/08 10:57:23;;;;;;;70.43;20.63;;;22.10;69.20;;;;;;5114629;28;20111;-51
2021/05/08 11:00:05;;;;;;;68.20;20.10;;;22.10;69.50;;;;;;5114661;28;20103;-52
2021/05/08 11:02:57;;;;;;;60.53;18.55;;;22.10;69.80;;;;;;5114571;28;20072;-51
2021/05/08 11:05:33;;;;;;;58.38;19.30;;;22.10;69.00;;;;;;5105679;28;20159;-53
2021/05/08 11:08:00;;;;;;;65.30;16.83;;;22.10;68.60;;;;;;5114517;28;20083;-52
2021/05/08 11:10:32;;;;;;;70.53;19.25;;;22.00;65.40;;;;;;5114403;28;20080;-51
2021/05/08 11:13:17;;;;;;;52.92;15.48;;;21.80;64.60;;;;;;5114328;28;20513;-50
2021/05/08 11:15:55;;;;;;;54.35;16.52;;;21.80;64.80;;;;;;5114258;28;20079;-51
2021/05/08 11:18:31;;;;;;;43.28;13.07;;;21.70;64.90;;;;;;5114360;28;20068;-50
2021/05/08 11:21:02;;;;;;;40.15;10.60;;;21.90;64.80;;;;;;5114052;28;20092;-50
2021/05/08 11:23:41;;;;;;;41.20;12.10;;;21.80;65.80;;;;;;5114110;28;20076;-52
2021/05/08 11:32:11;;;;;;;32.85;9.48;;;21.70;67.30;;;;;;5114426;28;20166;-50
2021/05/08 11:38:19;;;;;;;26.92;8.77;;;21.50;67.50;;;;;;5114317;28;20083;-50
2021/05/08 11:40:46;;;;;;;30.95;9.18;;;21.50;67.70;;;;;;5113862;28;20110;-52
2021/05/08 11:43:20;;;;;;;34.63;8.68;;;21.50;66.30;;;;;;5113799;28;20091;-54
2021/05/08 11:45:46;;;;;;;33.08;9.48;;;21.40;65.90;;;;;;5112998;28;20094;-52
2021/05/08 11:48:13;;;;;;;33.08;9.45;;;21.30;65.30;;;;;;5113278;28;20147;-54
2021/05/08 11:50:42;;;;;;;34.55;8.80;;;21.40;65.40;;;;;;5113705;28;20082;-51
2021/05/08 11:56:31;;;;;;;29.70;8.48;;;21.40;64.30;;;;;;5113971;28;20159;-53
2021/05/08 11:58:59;;;;;;;29.55;8.13;;;21.40;63.50;;;;;;5113523;28;20525;-50
2021/05/08 12:01:26;;;;;;;23.73;7.75;;;21.30;62.80;;;;;;5113554;28;20190;-53
2021/05/08 12:03:57;;;;;;;28.17;8.68;;;21.20;62.30;;;;;;5113566;28;20505;-50
2021/05/08 12:06:25;;;;;;;32.03;8.80;;;21.10;62.20;;;;;;5113570;28;20068;-52
2021/05/08 12:08:52;;;;;;;36.47;8.93;;;21.00;61.80;;;;;;5113456;28;20072;-51
2021/05/08 12:11:19;;;;;;;28.27;7.85;;;20.90;60.90;;;;;;5113510;28;20155;-50
2021/05/08 12:13:47;;;;;;;26.92;7.47;;;20.90;60.80;;;;;;5113345;28;20129;-51
2021/05/08 12:16:14;;;;;;;28.50;8.55;;;20.90;60.60;;;;;;5113415;28;20444;-51
2021/05/08 12:18:41;;;;;;;28.83;8.88;;;20.90;60.40;;;;;;5095157;28;20125;-49
2021/05/08 12:21:12;;;;;;;35.25;9.15;;;21.00;60.40;;;;;;5113311;28;20147;-50
2021/05/08 12:23:39;;;;;;;33.72;8.90;;;21.00;60.00;;;;;;5113264;28;20080;-51
2021/05/08 12:26:09;;;;;;;31.75;8.52;;;21.10;60.50;;;;;;5113301;28;20102;-50
2021/05/08 12:28:41;;;;;;;40.85;9.68;;;21.00;60.50;;;;;;5113183;28;20087;-52
2021/05/08 12:31:24;;;;;;;41.42;9.48;;;21.00;60.80;;;;;;5113270;28;20068;-52
2021/05/08 12:33:52;;;;;;;42.25;10.35;;;21.00;61.00;;;;;;5113322;28;20594;-49
2021/05/08 12:36:22;;;;;;;34.80;9.95;;;20.90;61.00;;;;;;5113447;28;20562;-55
2021/05/08 12:38:51;;;;;;;33.03;9.35;;;21.00;61.10;;;;;;5113052;28;20068;-52
2021/05/08 12:41:27;;;;;;;31.77;8.50;;;20.90;60.50;;;;;;5113171;28;20569;-51
2021/05/08 12:44:11;;;;;;;36.85;8.23;;;20.80;60.40;;;;;;5113146;28;20079;-52
2021/05/08 12:50:13;;;;;;;26.95;6.65;;;20.80;59.30;;;;;;5030855;28;20092;-52
2021/05/08 12:52:44;;;;;;;34.28;7.57;;;20.70;59.20;;;;;;5113003;28;20217;-50
2021/05/08 12:55:30;;;;;;;22.15;6.70;;;20.80;59.40;;;;;;5113226;28;20088;-51
2021/05/08 12:58:14;;;;;;;31.45;6.93;;;20.70;59.10;;;;;;5115191;28;20096;-51
2021/05/08 13:00:48;;;;;;;29.35;6.43;;;20.70;59.20;;;;;;5116871;28;20122;-49
2021/05/08 13:03:28;;;;;;;24.55;6.22;;;20.60;58.80;;;;;;5116887;28;20279;-55
2021/05/08 13:05:55;;;;;;;31.15;7.03;;;20.50;59.10;;;;;;5117414;28;20071;-50
2021/05/08 13:08:43;;;;;;;25.40;7.38;;;20.50;59.30;;;;;;5116845;28;20068;-50
2021/05/08 13:14:39;;;;;;;39.08;7.82;;;20.50;58.70;;;;;;5117251;28;20075;-51
2021/05/08 13:17:07;;;;;;;30.25;7.07;;;20.50;58.90;;;;;;5116892;28;20498;-52
2021/05/08 13:19:34;;;;;;;24.90;5.95;;;20.50;58.30;;;;;;5116521;28;20507;-50
2021/05/08 13:25:23;;;;;;;22.50;6.50;;;20.50;58.00;;;;;;5117007;28;20529;-53
2021/05/08 13:27:49;;;;;;;35.70;7.05;;;20.40;58.30;;;;;;5116749;28;20525;-53
2021/05/08 13:30:20;;;;;;;26.58;6.28;;;20.60;58.10;;;;;;5116423;28;20083;-50
2021/05/08 13:32:55;;;;;;;24.67;7.38;;;20.70;57.50;;;;;;5116441;28;20416;-51
2021/05/08 13:35:26;;;;;;;29.52;8.27;;;20.60;56.80;;;;;;5116328;28;20064;-50
2021/05/08 13:37:56;;;;;;;35.40;8.38;;;20.60;57.20;;;;;;5116294;28;20539;-51
2021/05/08 13:40:23;;;;;;;33.85;8.57;;;20.50;57.00;;;;;;5116107;28;20106;-50
2021/05/08 13:42:50;;;;;;;29.92;9.70;;;20.50;57.20;;;;;;5116139;28;20072;-56
2021/05/08 13:45:17;;;;;;;33.58;9.10;;;20.60;57.30;;;;;;5116339;28;20072;-49
2021/05/08 13:47:45;;;;;;;33.53;8.85;;;20.70;56.60;;;;;;5116103;28;20494;-50
2021/05/08 13:50:12;;;;;;;34.22;9.70;;;20.80;56.00;;;;;;5116016;28;20525;-52
2021/05/08 13:56:00;;;;;;;31.38;10.07;;;20.80;55.30;;;;;;5116201;28;20083;-50
2021/05/08 13:58:27;;;;;;;32.13;9.73;;;20.80;55.40;;;;;;5116000;28;20060;-51
2021/05/08 14:00:53;;;;;;;45.55;10.27;;;20.90;54.70;;;;;;5115716;28;20096;-50
2021/05/08 14:03:20;;;;;;;42.50;9.98;;;21.10;54.60;;;;;;5115649;28;20570;-50
2021/05/08 14:09:08;;;;;;;34.58;9.32;;;21.20;54.40;;;;;;5114839;28;20087;-53